createdAt,value
2023-09-12T00:00:00.140Z,20.3
2023-09-12T00:05:00.192Z,20
2023-09-12T00:10:00.118Z,22.7
2023-09-12T00:15:00.152Z,19.1
2023-09-12T00:20:00.149Z,19.6
2023-09-12T00:25:00.129Z,19.6
2023-09-12T00:30:00.151Z,19.6
2023-09-12T00:35:00.147Z,21.2
2023-09-12T00:40:00.117Z,18.5
2023-09-12T00:45:00.162Z,21.3
2023-09-12T00:50:00.152Z,20.2
2023-09-12T00:55:00.132Z,20.2
2023-09-12T01:00:00.149Z,18.9
2023-09-12T01:05:00.120Z,16.2
2023-09-12T01:10:00.117Z,18.7
2023-09-12T01:15:00.176Z,21
2023-09-12T01:20:00.126Z,19.1
2023-09-12T01:25:00.124Z,19.1
2023-09-12T01:30:00.116Z,21.3
2023-09-12T01:35:00.143Z,19.7
2023-09-12T01:40:00.153Z,19.2
2023-09-12T01:45:00.227Z,22.9
2023-09-12T01:50:00.147Z,22.3
2023-09-12T01:55:00.108Z,22.3
2023-09-12T02:00:00.099Z,19.2
2023-09-12T02:05:00.164Z,21
2023-09-12T02:10:00.121Z,21.2
2023-09-12T02:15:00.120Z,23.1
2023-09-12T02:20:00.120Z,25.1
2023-09-12T02:25:00.140Z,25.1
2023-09-12T02:30:00.131Z,20.5
2023-09-12T02:35:00.271Z,21.6
2023-09-12T02:40:00.143Z,22.8
2023-09-12T02:45:00.122Z,20.7
2023-09-12T02:50:00.129Z,21
2023-09-12T02:55:00.147Z,21
2023-09-12T03:00:00.112Z,21.6
2023-09-12T03:05:00.135Z,24
2023-09-12T03:10:00.209Z,23.1
2023-09-12T03:15:00.126Z,23.2
2023-09-12T03:20:00.114Z,19.9
2023-09-12T03:25:00.106Z,19.9
2023-09-12T03:30:00.106Z,26.5
2023-09-12T03:35:00.264Z,23.8
2023-09-12T03:40:00.099Z,26.1
2023-09-12T03:45:00.152Z,29.3
2023-09-12T03:50:00.132Z,23.3
2023-09-12T03:55:00.141Z,23.3
2023-09-12T04:00:00.098Z,22.4
2023-09-12T04:05:00.237Z,24.4
2023-09-12T04:10:00.110Z,22.7
2023-09-12T04:15:00.102Z,23.9
2023-09-12T04:20:00.114Z,26.8
2023-09-12T04:25:00.098Z,26.8
2023-09-12T04:30:00.120Z,26.2
2023-09-12T04:35:00.111Z,26.3
2023-09-12T04:40:00.141Z,30.6
2023-09-12T04:45:00.112Z,28.9
2023-09-12T04:50:00.139Z,24.7
2023-09-12T04:55:00.167Z,24.7
2023-09-12T05:00:00.109Z,25.5
2023-09-12T05:05:00.164Z,25
2023-09-12T05:10:00.184Z,28.1
2023-09-12T05:15:00.229Z,25.9
2023-09-12T05:20:00.180Z,27.3
2023-09-12T05:25:00.132Z,27.3
2023-09-12T05:30:00.118Z,26.8
2023-09-12T05:35:10.895Z,27.6
2023-09-12T05:40:00.115Z,28
2023-09-12T05:45:00.110Z,29.2
2023-09-12T05:50:00.163Z,21.8
2023-09-12T05:55:00.117Z,21.8
2023-09-12T06:00:00.128Z,20.4
2023-09-12T06:05:00.097Z,28.1
2023-09-12T06:10:00.101Z,21.4
2023-09-12T06:15:00.107Z,21
2023-09-12T06:20:00.138Z,21.7
2023-09-12T06:25:00.129Z,21.7
2023-09-12T06:30:00.114Z,24.8
2023-09-12T06:35:00.142Z,20.3
2023-09-12T06:40:00.096Z,21
2023-09-12T06:45:00.108Z,21.1
2023-09-12T06:50:00.145Z,26.8
2023-09-12T06:55:00.126Z,26.8
2023-09-12T07:00:00.096Z,27.6
2023-09-12T07:05:00.117Z,23.3
2023-09-12T07:10:15.901Z,17.5
2023-09-12T07:15:00.103Z,20.3
2023-09-12T07:20:00.142Z,19.7
2023-09-12T07:25:00.131Z,19.7
2023-09-12T07:30:00.116Z,23.4
2023-09-12T07:35:00.146Z,23.4
2023-09-12T07:40:00.139Z,23.5
2023-09-12T07:45:00.093Z,19.1
2023-09-12T07:50:00.109Z,17.7
2023-09-12T07:55:00.103Z,17.7
2023-09-12T08:00:00.095Z,16.7
2023-09-12T08:05:00.188Z,20.9
2023-09-12T08:10:00.145Z,18.9
2023-09-12T08:15:00.141Z,17.3
2023-09-12T08:20:00.118Z,17.1
2023-09-12T08:25:00.136Z,17.1
2023-09-12T08:30:00.164Z,19.2
2023-09-12T08:35:00.125Z,15.8
2023-09-12T08:40:00.189Z,16.6
2023-09-12T08:45:00.118Z,13.6
2023-09-12T08:50:00.113Z,14.5
2023-09-12T08:55:00.129Z,14.5
2023-09-12T09:00:00.093Z,18.2
2023-09-12T09:05:00.140Z,20.7
2023-09-12T09:10:00.133Z,12.9
2023-09-12T09:15:00.107Z,17.7
2023-09-12T09:20:00.149Z,15.1
2023-09-12T09:25:00.112Z,15.1
2023-09-12T09:30:00.112Z,18.7
2023-09-12T09:35:00.115Z,17.2
2023-09-12T09:40:00.134Z,16.5
2023-09-12T09:45:00.099Z,22.1
2023-09-12T09:50:00.110Z,14.6
2023-09-12T09:55:00.123Z,14.6
2023-09-12T10:00:00.096Z,13.3
2023-09-12T10:05:00.701Z,15.4
2023-09-12T10:10:00.183Z,14.6
2023-09-12T10:15:00.124Z,15.7
2023-09-12T10:20:00.121Z,14.7
2023-09-12T10:25:00.179Z,14.7
2023-09-12T10:30:00.116Z,16.7
2023-09-12T10:35:00.117Z,16.6
2023-09-12T10:40:00.200Z,15.4
2023-09-12T10:45:00.117Z,16.1
2023-09-12T10:50:00.139Z,13.5
2023-09-12T10:55:00.212Z,13.5
2023-09-12T11:00:00.095Z,16.3
2023-09-12T11:05:00.113Z,20.8
2023-09-12T11:10:00.195Z,18.5
2023-09-12T11:15:00.115Z,14.1
2023-09-12T11:20:00.098Z,21.5
2023-09-12T11:25:00.168Z,21.5
2023-09-12T11:30:00.129Z,15.8
2023-09-12T11:35:00.139Z,14.6
2023-09-12T11:40:00.200Z,15.5
2023-09-12T11:45:00.131Z,13.3
2023-09-12T11:50:00.109Z,14.7
2023-09-12T11:55:00.152Z,14.7
2023-09-12T12:00:00.135Z,15.1
2023-09-12T12:05:00.251Z,15.4
2023-09-12T12:10:00.116Z,18.4
2023-09-12T12:15:00.110Z,15.9
2023-09-12T12:20:00.105Z,14.7
2023-09-12T12:25:00.172Z,14.7
2023-09-12T12:30:00.118Z,12.5
2023-09-12T12:35:45.875Z,13.2
2023-09-12T12:40:00.281Z,16.2
2023-09-12T12:45:00.101Z,15
2023-09-12T12:50:00.152Z,18.6
2023-09-12T12:55:00.177Z,18.6
2023-09-12T13:00:00.092Z,14.6
2023-09-12T13:05:00.190Z,16.9
2023-09-12T13:10:00.155Z,30.6
2023-09-12T13:15:00.133Z,17.4
2023-09-12T13:20:00.152Z,16.5
2023-09-12T13:25:00.172Z,16.5
2023-09-12T13:30:00.798Z,15.6
2023-09-12T13:35:00.138Z,20.1
2023-09-12T13:40:00.213Z,16
2023-09-12T13:45:00.150Z,11.1
2023-09-12T13:50:00.150Z,17
2023-09-12T13:55:00.161Z,17
2023-09-12T14:00:00.097Z,17.6
2023-09-12T14:05:11.539Z,16.5
2023-09-12T14:10:00.171Z,13.1
2023-09-12T14:15:07.553Z,18.5
2023-09-12T14:20:00.207Z,17.9
2023-09-12T14:25:00.248Z,17.9
2023-09-12T14:30:00.100Z,12.6
2023-09-12T14:35:00.110Z,14.3
2023-09-12T14:40:00.159Z,13.1
2023-09-12T14:45:00.124Z,13.7
2023-09-12T14:50:00.318Z,15.3
2023-09-12T14:55:00.208Z,15.3
2023-09-12T15:00:00.108Z,12.6
2023-09-12T15:05:00.120Z,13.1
2023-09-12T15:10:00.210Z,12.2
2023-09-12T15:15:00.102Z,13.7
2023-09-12T15:20:00.110Z,15.5
2023-09-12T15:25:00.152Z,15.5
2023-09-12T15:30:00.127Z,15.7
2023-09-12T15:35:03.185Z,15.1
2023-09-12T15:40:00.121Z,13.8
2023-09-12T15:45:02.600Z,18.7
2023-09-12T15:50:00.127Z,14.7
2023-09-12T15:55:00.166Z,14.7
2023-09-12T16:00:00.113Z,14.1
2023-09-12T16:05:00.255Z,15.1
2023-09-12T16:10:00.216Z,17.2
2023-09-12T16:15:00.113Z,15.8
2023-09-12T16:20:00.119Z,12.6
2023-09-12T16:25:00.168Z,12.6
2023-09-12T16:30:00.124Z,13.3
2023-09-12T16:35:00.242Z,17.3
2023-09-12T16:40:00.133Z,17
2023-09-12T16:45:00.108Z,13.9
2023-09-12T16:50:00.115Z,14.5
2023-09-12T16:55:00.124Z,14.5
2023-09-12T17:00:00.169Z,15.8
2023-09-12T17:05:00.122Z,14.8
2023-09-12T17:10:00.247Z,12.4
2023-09-12T17:15:00.189Z,16.3
2023-09-12T17:20:00.103Z,17.2
2023-09-12T17:25:00.167Z,17.2
2023-09-12T17:30:00.130Z,17.4
2023-09-12T17:35:00.114Z,16.1
2023-09-12T17:40:00.207Z,14.3
2023-09-12T17:45:00.137Z,17.2
2023-09-12T17:50:00.137Z,17.3
2023-09-12T17:55:00.171Z,17.3
2023-09-12T18:00:00.101Z,15.9
2023-09-12T18:05:00.163Z,14.1
2023-09-12T18:10:00.124Z,15.1
2023-09-12T18:15:00.117Z,18.9
2023-09-12T18:20:00.120Z,16.3
2023-09-12T18:25:00.236Z,16.3
2023-09-12T18:30:00.097Z,18.7
2023-09-12T18:35:00.148Z,17.9
2023-09-12T18:40:00.195Z,17.8
2023-09-12T18:45:00.097Z,18.7
2023-09-12T18:50:00.129Z,17
2023-09-12T18:55:00.223Z,17
2023-09-12T19:00:00.101Z,16.2
2023-09-12T19:05:00.289Z,15.1
2023-09-12T19:10:00.191Z,13.6
2023-09-12T19:15:00.105Z,16.7
2023-09-12T19:20:00.140Z,15.7
2023-09-12T19:25:00.171Z,15.7
2023-09-12T19:30:00.139Z,16
2023-09-12T19:35:00.133Z,16.5
2023-09-12T19:40:00.190Z,18.2
2023-09-12T19:45:00.157Z,19.2
2023-09-12T19:50:00.119Z,15.8
2023-09-12T19:55:00.142Z,15.8
2023-09-12T20:00:00.131Z,18.8
2023-09-12T20:05:00.149Z,17.1
2023-09-12T20:10:00.128Z,14.8
2023-09-12T20:15:00.131Z,17.9
2023-09-12T20:20:00.138Z,20.4
2023-09-12T20:25:00.209Z,20.4
2023-09-12T20:30:00.124Z,14.9
2023-09-12T20:35:00.148Z,21.3
2023-09-12T20:40:00.156Z,22.4
2023-09-12T20:45:00.123Z,18.9
2023-09-12T20:50:00.132Z,23.4
2023-09-12T20:55:00.166Z,23.4
2023-09-12T21:00:00.116Z,18.1
2023-09-12T21:05:00.116Z,17.4
2023-09-12T21:10:00.160Z,16.8
2023-09-12T21:15:00.110Z,16
2023-09-12T21:20:00.136Z,19.5
2023-09-12T21:25:00.144Z,19.5
2023-09-12T21:30:00.157Z,17.8
2023-09-12T21:35:00.130Z,19.3
2023-09-12T21:40:00.188Z,17.2
2023-09-12T21:45:00.097Z,14
2023-09-12T21:50:00.115Z,15.5
2023-09-12T21:55:00.208Z,15.5
2023-09-12T22:00:00.092Z,16.8
2023-09-12T22:05:00.153Z,17.7
2023-09-12T22:10:00.208Z,20
2023-09-12T22:15:00.116Z,17.9
2023-09-12T22:20:00.117Z,16.7
2023-09-12T22:25:00.223Z,16.7
2023-09-12T22:30:00.116Z,17
2023-09-12T22:35:00.118Z,16.4
2023-09-12T22:40:00.140Z,14.7
2023-09-12T22:45:00.097Z,17.3
2023-09-12T22:50:00.123Z,18.7
2023-09-12T22:55:00.161Z,18.7
2023-09-12T23:00:00.093Z,20.1
2023-09-12T23:05:00.226Z,18
2023-09-12T23:10:00.149Z,18.6
2023-09-12T23:15:00.105Z,17.1
2023-09-12T23:20:00.134Z,17.8
2023-09-12T23:25:00.150Z,17.8
2023-09-12T23:30:00.098Z,21.1
2023-09-12T23:35:00.139Z,16.2
2023-09-12T23:40:00.204Z,18.9
2023-09-12T23:45:00.108Z,17.7
2023-09-12T23:50:00.127Z,22.5
2023-09-12T23:55:00.173Z,22.5
